Tiempo atmosférico en la estación meteorológica de Los Tojos, Bárcena Mayor, Cantabria (455 m.)



Fecha
DESCASC
Temp. máxima en grados centígrados (hora)
DESCASC
Temp. mínima en grados centígrados (hora)
DESCASC
Temp. media en grados centígrados
DESCASC
Racha de viento máxima en m/sg (hora)
DESCASC
Velocidad máxima media en intervalos de 10 minutos(hora)
DESCASC
Precipitaciones diarias en mm
DESCASC
Precipitaciones de 00:00 a 06:00 en mm
DESCASC
Precipitaciones de 06:00 a 12:00 en mm
DESCASC
Precipitaciones de 12:00 a 18:00 en mm
DESCASC
Precipitaciones de 18:00 a 24:00 en mm
DESCASC
24-01-2021 12.8 (14:50) 2.1 (09:40) 7.5 10 (01:20) 3.61 (01:20) 13.2 12.2 1 0 0
23-01-2021 11 (16:00) -1 (02:10) 5 5.28 (13:40) 2.5 (14:40) 4.2 0 0 2.6 1.6
22-01-2021 13.3 (00:10) -0.6 (23:50) 6.4 10.83 (12:50) 4.72 (00:10) 5.2 2.2 3 0 0
21-01-2021 16.9 (14:40) 2.3 (00:00) 9.6 15 (23:00) 5.83 (23:20) 0 0 0 0 0
20-01-2021 12.8 (12:50) 6.8 (00:00) 9.8 21.67 (10:50) 9.44 (05:00) 0 0 0 0 0
19-01-2021 14.7 (14:30) -0.8 (-00:0) 6.9 12.5 (22:00) 6.11 (22:00) 0 0 0 0 0
18-01-2021 9.1 (14:50) 0.5 (00:00) 4.8 2.5 (14:50) 1.39 (14:50) 1.6 1.2 0.4 0 0
17-01-2021 8.7 (14:50) -1.8 (-00:0) 3.4 4.72 (14:50) 1.94 (14:50) 2.4 0 0 0.6 1.8
16-01-2021 6.9 (15:20) -3.1 (-00:0) 1.9 -- (--) -- (--) 0 0 0 0 0
15-01-2021 7.4 (13:10) -0.3 (00:00) 3.6 4.44 (13:20) 1.94 (13:10) 1 1 0 0 0
14-01-2021 4.9 (22:40) -4.3 (07:00) 0.3 6.67 (22:40) 2.5 (22:40) 4.8 0 0 1.8 3
13-01-2021 6.2 (13:40) -2.5 (-00:0) 1.8 1.94 (15:50) 1.11 (15:30) 0 0 0 0 0
12-01-2021 4.9 (14:20) -2.8 (-00:0) 1.1 2.22 (15:30) 1.11 (15:20) 0 0 0 0 0
11-01-2021 4.1 (14:20) -0.9 (-00:0) 1.6 7.22 (00:10) 4.17 (01:40) 0.2 0.2 0 0 0
10-01-2021 3.1 (13:20) 0 (00:00) 1.5 9.72 (10:40) 5.83 (10:40) 2.8 2.2 0 0 0.6
09-01-2021 1.7 (12:10) -1.1 (-00:0) 0.3 5 (15:30) 2.5 (15:10) 11 0 0 5.2 5.8
08-01-2021 2.3 (15:00) -4.3 (-00:0) -1 4.44 (15:00) 2.22 (15:00) 0 0 0 0 0
07-01-2021 2.6 (14:50) -5.5 (-00:0) -1.5 2.5 (16:00) 1.11 (16:00) 0 0 0 0 0
06-01-2021 4.3 (14:30) -2.5 (-00:0) 0.9 2.78 (15:00) 1.39 (15:00) 1.2 0 1.2 0 0
05-01-2021 3.8 (13:40) -0.5 (-00:0) 1.6 3.06 (18:40) 1.39 (16:10) 4.8 3.8 0.4 0 0.6
04-01-2021 2 (14:50) -0.3 (00:00) 0.8 4.44 (15:00) 1.67 (13:00) 25.8 3.8 10.8 9.2 2
03-01-2021 3.9 (13:50) 0.1 (00:00) 2 5.28 (15:50) 2.5 (15:50) 20.2 9.6 1.4 2.8 6.4
02-01-2021 3.7 (15:00) 0.2 (00:00) 2 10 (15:10) 3.89 (01:30) 24 11.4 5 0.8 6.8
01-01-2021 4 (13:50) -0.2 (00:00) 1.9 11.39 (19:20) 5.83 (19:20) 12.2 5 0 4.8 2.4
31-12-2020 6.9 (13:30) -0.2 (00:00) 3.4 8.33 (13:40) 3.61 (13:40) 16.2 0 0 11 5.2
30-12-2020 5.4 (13:30) -0.1 (00:00) 2.7 7.78 (02:00) 2.78 (00:50) 7 4.4 0.6 2 0
29-12-2020 6.6 (14:30) 0.5 (00:00) 3.5 8.61 (15:10) 4.17 (16:30) 10.4 2.4 4 0.4 3.6
28-12-2020 6.7 (14:20) 2.4 (00:00) 4.5 15.56 (17:40) 6.39 (02:40) 13.8 5.6 0.8 3.4 4
27-12-2020 12.3 (16:30) -1.9 (-00:0) 5.2 11.94 (20:20) 4.17 (20:30) 9.6 0 0 0 9.6
26-12-2020 7.2 (14:20) -1.5 (-00:0) 2.8 5.83 (13:20) 2.5 (13:20) 3.6 2.4 1.2 0 0

Gráficas

Temp. máximas Temp. mínimas Temp. medias Precipitaciones Rachas de viento máximas Velocidades máximas media en intervalos de 10 minutos

Datos horarios

Fecha y hora oficial Temperatura (ºC) Velocidad del viento (km/h) Dirección del viento Racha (km/h) Dirección de racha Precipitación (mm) Presión (hPa) Tendencia (hPa) Humedad (%)
2021-01-24 23:00:00 3.1 0 Calma 4 Este 0 -- -- 100
2021-01-24 22:00:00 3.9 3 Sudeste 4 Sur 0 -- -- 99
2021-01-24 21:00:00 4.1 2 Este 6 Oeste 0 -- -- 99
2021-01-24 20:00:00 5 2 Sudeste 4 Este 0 -- -- 94
2021-01-24 19:00:00 6.7 3 Sudeste 5 Oeste 0 -- -- 91
2021-01-24 18:00:00 8.6 4 Sur 19 Oeste 0 -- -- 84
2021-01-24 17:00:00 11.1 6 Noroeste 13 Oeste 0 -- -- 71
2021-01-24 16:00:00 11.6 3 Oeste 6 Noroeste 0 -- -- 77
2021-01-24 15:00:00 12.4 5 Sudeste 9 Sudeste 0 -- -- 53
2021-01-24 14:00:00 12.1 4 Sur 8 Sur 0 -- -- 56
2021-01-24 13:00:00 10.8 6 Este 13 Este 0 -- -- 67
2021-01-24 12:00:00 8.1 4 Sur 12 Sur 0 -- -- 87
2021-01-24 11:00:00 5 4 Sudeste 12 Sur 0 -- -- 100
2021-01-24 10:00:00 2.4 4 Sudeste 7 Sur 0 -- -- 100
2021-01-24 09:00:00 2.5 0 Calma 4 Sudeste 0 -- -- 100
2021-01-24 08:00:00 4.1 3 Sur 6 Sur 0 -- -- 100
2021-01-24 07:00:00 4.3 2 Sudeste 4 Sudeste 1 -- -- 100
2021-01-24 06:00:00 4.7 0 Calma 12 Oeste 1.4 -- -- 100
2021-01-24 05:00:00 5.3 6 Oeste 20 Oeste 4.6 -- -- 97
2021-01-24 04:00:00 5.7 0 Calma 20 Oeste 2 -- -- 98
2021-01-24 03:00:00 6.1 3 Oeste 28 Noroeste 1.8 -- -- 99
2021-01-24 02:00:00 7 8 Oeste 36 Noroeste 2 -- -- 94
2021-01-24 01:00:00 7.5 12 Oeste 27 Noroeste 0.4 -- -- 99
2021-01-24 00:00:00 4.4 3 Oeste 8 Sudoeste 0 -- -- 100
2021-01-23 23:00:00 4.1 0 Calma 6 Sur 0 -- -- 100
2021-01-23 22:00:00 4.8 4 Sur 6 Este 0 -- -- 100
2021-01-23 21:00:00 5.7 3 Sudeste 8 Sur 0 -- -- 99
2021-01-23 20:00:00 7.5 2 Sur 6 Este 1 -- -- 100
2021-01-23 19:00:00 8.1 3 Sudeste 11 Sur 0.6 -- -- 98
2021-01-23 18:00:00 8.9 0 Calma 13 Oeste 0 -- -- 93
2021-01-23 17:00:00 10.1 4 Oeste 8 Sudeste 0.2 -- -- 92
2021-01-23 16:00:00 11 5 Oeste 13 Oeste 0.2 -- -- 81
2021-01-23 15:00:00 9.5 5 Sudoeste 19 Nordeste 0 -- -- 87
2021-01-23 14:00:00 6.6 2 Oeste 19 Noroeste 2.2 -- -- 95
2021-01-23 13:00:00 7.9 3 Este 8 Noroeste 0 -- -- 85
2021-01-23 12:00:00 7 3 Sudoeste 6 Sur 0 -- -- 80
2021-01-23 11:00:00 5.4 0 Calma 9 Oeste 0 -- -- 95
2021-01-23 10:00:00 2.9 3 Este 6 Este 0 -- -- 99
2021-01-23 09:00:00 1.9 4 Sudeste 7 Sudoeste 0 -- -- 99
2021-01-23 08:00:00 1.2 3 Este 9 Nordeste 0 -- -- 100
2021-01-23 07:00:00 0.8 4 Oeste 11 Este 0 -- -- 99
2021-01-23 06:00:00 0.2 2 Sudeste 9 Este 0 -- -- 100
2021-01-23 05:00:00 -0.3 3 Sudeste 8 Este 0 -- -- 100
2021-01-23 04:00:00 -0.5 3 Este 10 Este 0 -- -- 100
2021-01-23 03:00:00 -0.9 4 Este 9 Este 0 -- -- 100
2021-01-23 02:00:00 -0.8 3 Este 8 Sur 0 -- -- 100
2021-01-23 01:00:00 -0.9 2 Noroeste 5 Sur 0 -- -- 100
2021-01-23 00:00:00 -0.6 3 Sudeste 5 Sur 0 -- -- 99
2021-01-22 23:00:00 -0.1 0 Calma 4 Sudoeste 0 -- -- 98
2021-01-22 22:00:00 0.5 2 Sudeste 6 Oeste 0 -- -- 98
2021-01-22 21:00:00 1.2 0 Calma 6 Sudeste 0 -- -- 96
2021-01-22 20:00:00 2.2 0 Calma 4 Sur 0 -- -- 93
2021-01-22 19:00:00 4 3 Sur 5 Sudeste 0 -- -- 86
2021-01-22 18:00:00 7.3 4 Sur 15 Oeste 0 -- -- 76
2021-01-22 17:00:00 8.9 3 Oeste 11 Oeste 0 -- -- 61
2021-01-22 16:00:00 9 5 Oeste 24 Oeste 0 -- -- 60
2021-01-22 15:00:00 9.4 10 Oeste 26 Noroeste 0 -- -- 60
2021-01-22 14:00:00 8.7 8 Oeste 29 Oeste 0 -- -- 62
2021-01-22 13:00:00 8.8 12 Noroeste 39 Sudoeste 0 -- -- 68
2021-01-22 12:00:00 7.3 12 Noroeste 35 Oeste 0.4 -- -- 73
2021-01-22 11:00:00 5.9 14 Oeste 30 Noroeste 1.4 -- -- 87
2021-01-22 10:00:00 6.3 11 Noroeste 33 Oeste 0.4 -- -- 87
2021-01-22 09:00:00 6.4 2 Este 22 Oeste 0.6 -- -- 97
2021-01-22 08:00:00 6.1 3 Nordeste 8 Este 0 -- -- 100
2021-01-22 07:00:00 6.7 4 Sur 10 Este 0.2 -- -- 99
2021-01-22 06:00:00 7.4 6 Noroeste 13 Noroeste 2 -- -- 99
2021-01-22 05:00:00 8.1 3 Oeste 19 Oeste 0 -- -- 92
2021-01-22 04:00:00 9.5 4 Nordeste 24 Oeste 0.2 -- -- 78
2021-01-22 03:00:00 10.5 10 Oeste 28 Oeste 0 -- -- 73
2021-01-22 02:00:00 11.5 5 Norte 17 Sur 0 -- -- 66
2021-01-22 01:00:00 13.2 10 Norte 30 Noroeste 0 -- -- 52
2021-01-22 00:00:00 13.1 12 Norte 48 Noroeste 0 -- -- 50
2021-01-21 23:00:00 13.6 17 Noroeste 54 Norte 0 -- -- 48
2021-01-21 22:00:00 13.4 10 Noroeste 43 Oeste 0 -- -- 46
2021-01-21 21:00:00 13.6 8 Norte 35 Noroeste 0 -- -- 44
2021-01-21 20:00:00 14.1 7 Noroeste 42 Noroeste 0 -- -- 41
2021-01-21 19:00:00 14.7 10 Oeste 52 Noroeste 0 -- -- 38
2021-01-21 18:00:00 14.5 10 Noroeste 50 Noroeste 0 -- -- 37
2021-01-21 17:00:00 15 18 Noroeste 53 Noroeste 0 -- -- 43
2021-01-21 16:00:00 15.5 13 Noroeste 36 Oeste 0 -- -- 47
2021-01-21 15:00:00 16.9 8 Oeste 30 Noroeste 0 -- -- 47
2021-01-21 14:00:00 16.3 9 Oeste 32 Oeste 0 -- -- 46
2021-01-21 13:00:00 15.6 13 Noroeste 32 Noroeste 0 -- -- 48
2021-01-21 12:00:00 14.5 11 Sudeste 43 Nordeste 0 -- -- 51
2021-01-21 11:00:00 12.7 20 Este 45 Este 0 -- -- 58
2021-01-21 10:00:00 11.7 17 Este 43 Sudeste 0 -- -- 63
2021-01-21 09:00:00 10.9 13 Este 35 Sudeste 0 -- -- 66
2021-01-21 08:00:00 5.3 9 Este 34 Este 0 -- -- 89
2021-01-21 07:00:00 2.4 3 Sudoeste 9 Este 0 -- -- 99
2021-01-21 06:00:00 2.6 4 Sudeste 8 Nordeste 0 -- -- 99
2021-01-21 05:00:00 3 2 Norte 5 Este 0 -- -- 98
2021-01-21 04:00:00 4.1 0 Calma 4 Este 0 -- -- 95
2021-01-21 03:00:00 4.6 2 Sudeste 8 Sudoeste 0 -- -- 96
2021-01-21 02:00:00 5.3 0 Calma 8 Sudoeste 0 -- -- 90
2021-01-21 01:00:00 6.3 5 Sudeste 10 Este 0 -- -- 87
2021-01-21 00:00:00 6.8 2 Sudeste 7 Sudoeste 0 -- -- 85
2021-01-20 23:00:00 9 4 Sur 24 Este 0 -- -- 77
2021-01-20 22:00:00 10.2 8 Este 20 Este 0 -- -- 72
2021-01-20 21:00:00 11 0 Calma 14 Nordeste 0 -- -- 68
2021-01-20 20:00:00 10.8 6 Este 21 Este 0 -- -- 66
2021-01-20 19:00:00 11.4 13 Este 30 Este 0 -- -- 67
2021-01-20 18:00:00 11.9 20 Este 37 Este 0 -- -- 67
2021-01-20 17:00:00 12.2 17 Este 46 Este 0 -- -- 67
2021-01-20 16:00:00 11.6 23 Este 52 Este 0 -- -- 71
2021-01-20 15:00:00 11.5 23 Este 58 Este 0 -- -- 67
2021-01-20 14:00:00 10.7 22 Este 59 Este 0 -- -- 67
2021-01-20 13:00:00 12.7 15 Este 50 Este 0 -- -- 57
2021-01-20 12:00:00 11.7 23 Sudeste 64 Noroeste 0 -- -- 59
2021-01-20 11:00:00 11.6 15 Nordeste 78 Este 0 -- -- 55
2021-01-20 10:00:00 11.5 17 Nordeste 54 Nordeste 0 -- -- 55
2021-01-20 09:00:00 10.9 22 Este 66 Este 0 -- -- 60
2021-01-20 08:00:00 8.1 15 Sudeste 46 Este 0 -- -- 72
2021-01-20 07:00:00 7.8 11 Este 41 Este 0 -- -- 75
2021-01-20 06:00:00 9.6 15 Nordeste 74 Este 0 -- -- 61
2021-01-20 05:00:00 9.9 34 Este 66 Este 0 -- -- 54
2021-01-20 04:00:00 10.4 24 Este 55 Este 0 -- -- 52
2021-01-20 03:00:00 11 15 Nordeste 50 Este 0 -- -- 48
2021-01-20 02:00:00 11.2 21 Este 49 Este 0 -- -- 47
2021-01-20 01:00:00 11.5 20 Este 57 Este 0 -- -- 41
2021-01-20 00:00:00 11.8 19 Este 40 Este 0 -- -- 39
2021-01-19 23:00:00 10.7 10 Este 36 Este 0 -- -- 35
2021-01-19 22:00:00 10.9 22 Este 45 Este 0 -- -- 44
2021-01-19 21:00:00 6.4 4 Sudeste 16 Este 0 -- -- 69
2021-01-19 20:00:00 9.7 9 Este 31 Este 0 -- -- 49
2021-01-19 19:00:00 10 6 Noroeste 37 Este 0 -- -- 49
2021-01-19 18:00:00 11.8 14 Este 37 Este 0 -- -- 32
2021-01-19 17:00:00 8.6 6 Sudeste 15 Este 0 -- -- 58
2021-01-19 16:00:00 10.1 6 Sur 22 Este 0 -- -- 54
2021-01-19 15:00:00 11.6 6 Sudeste 20 Este 0 -- -- 58
2021-01-19 14:00:00 -- 11 Este 25 Sudeste 0 -- -- --
2021-01-19 13:00:00 8.8 3 Sur 8 Este 0 -- -- 69
2021-01-19 12:00:00 5.8 3 Sudoeste 8 Sudoeste -- -- -- 82
2021-01-19 11:00:00 2.9 4 Sudeste 9 Sudoeste -- -- -- 95
2021-01-19 10:00:00 0.2 4 Oeste 10 Oeste 0 -- -- 100
2021-01-19 09:00:00 -0.3 3 Sudeste 11 Sudeste 0 -- -- 100
2021-01-19 08:00:00 -0.7 0 Calma 5 Este 0 -- -- 100
2021-01-19 07:00:00 -0.5 0 Calma 6 Sur 0 -- -- 100
2021-01-19 06:00:00 -0.4 3 Este 6 Nordeste 0 -- -- 100
2021-01-19 05:00:00 -0.5 3 Sudeste 6 Este 0 -- -- 100
2021-01-19 04:00:00 -0.3 0 Calma 8 Este 0 -- -- 100
2021-01-19 03:00:00 -0.1 0 Calma 7 Este 0 -- -- 100
2021-01-19 02:00:00 0 2 Sudeste 5 Sur 0 -- -- 100
2021-01-19 01:00:00 0.3 0 Calma 4 Este 0 -- -- 100
2021-01-19 00:00:00 0.5 2 Sudeste 5 Este 0 -- -- 100
2021-01-18 23:00:00 0.8 0 Calma 5 Este 0 -- -- 100
2021-01-18 22:00:00 1.2 2 Sudeste 4 Este 0 -- -- 100
2021-01-18 21:00:00 1.7 0 Calma 4 Este 0 -- -- 100
2021-01-18 20:00:00 2.6 0 Calma 3 Este 0 -- -- 100
2021-01-18 19:00:00 3.6 0 Calma 4 Este 0 -- -- 98
2021-01-18 18:00:00 5 0 Calma 4 Sudeste 0 -- -- 97
2021-01-18 17:00:00 6.4 0 Calma 4 Sur 0 -- -- 93
2021-01-18 16:00:00 7.9 3 Sur 8 Sudoeste 0 -- -- 92
2021-01-18 15:00:00 8.9 4 Sudoeste 9 Sudoeste 0 -- -- 88
2021-01-18 14:00:00 8.6 3 Sudoeste 5 Sudoeste 0 -- -- 88
2021-01-18 13:00:00 8.2 0 Calma 3 Sur 0 -- -- 93
2021-01-18 12:00:00 7 0 Calma 3 Sur 0 -- -- 100
2021-01-18 11:00:00 5.6 2 Sudeste 4 Sudeste 0 -- -- 100
2021-01-18 10:00:00 4.1 0 Calma 4 Este 0 -- -- 100
2021-01-18 09:00:00 3.5 0 Calma 3 Sur 0 -- -- 100
2021-01-18 08:00:00 3.5 0 Calma 3 Este 0.2 -- -- 100
2021-01-18 07:00:00 3.6 0 Calma 4 Este 0.2 -- -- 100
2021-01-18 06:00:00 3.5 0 Calma 3 Este 0 -- -- 100
2021-01-18 05:00:00 3.4 0 Calma 3 Sudeste 0 -- -- 100
2021-01-18 04:00:00 3.6 0 Calma 4 Sudeste 0.2 -- -- 100
2021-01-18 03:00:00 3.6 0 Calma 4 Este 0 -- -- 100
2021-01-18 02:00:00 3.6 3 Sudeste 4 Este 0.2 -- -- 100
2021-01-18 01:00:00 3.5 0 Calma 4 Sur 0.8 -- -- 100
2021-01-18 00:00:00 3.6 0 Calma 4 Sudeste 0.2 -- -- 100
2021-01-17 23:00:00 3.6 2 Sur 5 Sur 0.4 -- -- 100
2021-01-17 22:00:00 3.7 2 Sudeste 3 Sur 0.4 -- -- 100
2021-01-17 21:00:00 3.8 0 Calma 5 Sudeste 0.2 -- -- 100
2021-01-17 20:00:00 3.9 0 Calma 4 Sur 0.4 -- -- 100
2021-01-17 19:00:00 4.2 0 Calma 5 Sudeste 0.2 -- -- 100
2021-01-17 18:00:00 4.5 0 Calma 8 Sudeste 0 -- -- 100
2021-01-17 17:00:00 5.1 2 Sudeste 5 Este 0.6 -- -- 100
2021-01-17 16:00:00 5.6 3 Sudeste 6 Sur 0 -- -- 98
2021-01-17 15:00:00 8.2 0 Calma 17 Oeste 0 -- -- 88
2021-01-17 14:00:00 7.9 3 Sur 4 Sudoeste 0 -- -- 83
2021-01-17 13:00:00 7.7 0 Calma 4 Sur 0 -- -- 85
2021-01-17 12:00:00 5.3 0 Calma 4 Este 0 -- -- 94
2021-01-17 11:00:00 2.3 2 Este 5 Oeste 0 -- -- 100
2021-01-17 10:00:00 0.2 2 Sudeste 4 Este 0 -- -- 100
2021-01-17 09:00:00 0.1 0 Calma 4 Este 0 -- -- 100
2021-01-17 08:00:00 -0.4 0 Calma 4 Este 0 -- -- 100
2021-01-17 07:00:00 -1.5 0 Calma 8 Sudeste 0 -- -- 100
2021-01-17 06:00:00 -1.7 0 Calma 6 Este 0 -- -- 100
2021-01-17 05:00:00 -1.5 0 Calma 4 Sur 0 -- -- 100
2021-01-17 04:00:00 -1.4 0 Calma 7 Este 0 -- -- 99
2021-01-17 03:00:00 -1.4 0 Calma 5 Este 0 -- -- 99
2021-01-17 02:00:00 -1.3 0 Calma 5 Este 0 -- -- 98
2021-01-17 01:00:00 -1.2 2 Este 5 Este 0 -- -- 97
2021-01-17 00:00:00 -1.1 0 Calma 5 Este 0 -- -- 98
2021-01-16 23:00:00 -1 3 Este 5 Este 0 -- -- 98
2021-01-16 22:00:00 -0.7 2 Este 5 Este 0 -- -- 98
2021-01-16 21:00:00 -0.3 0 Calma 3 Este 0 -- -- 97
2021-01-16 20:00:00 0.5 0 Calma 5 Sudeste 0 -- -- 95
2021-01-16 19:00:00 1.2 0 Calma -- -- 0 -- -- 92
2021-01-16 18:00:00 2.8 0 Calma -- -- 0 -- -- 85
2021-01-16 17:00:00 4.3 0 Calma 4 Sudoeste 0 -- -- 78
2021-01-16 16:00:00 5.4 3 Sur 9 Oeste 0 -- -- 71
2021-01-16 15:00:00 6.8 4 Sudoeste 6 Sudoeste 0 -- -- 66
2021-01-16 14:00:00 6.6 3 Sur 4 Sudoeste 0 -- -- 67
2021-01-16 13:00:00 5.5 2 Sur 4 Sudeste 0 -- -- 74
2021-01-16 12:00:00 3.6 0 Calma 3 Este 0 -- -- 82
2021-01-16 11:00:00 -0.3 0 Calma 3 Sudeste 0 -- -- 100
2021-01-16 10:00:00 -2.8 0 Calma 4 Sudeste 0 -- -- 100
2021-01-16 09:00:00 -3.1 0 Calma 3 Nordeste 0 -- -- 100
2021-01-16 08:00:00 -2.9 2 Este 3 Nordeste 0 -- -- 100
2021-01-16 07:00:00 -2.6 0 Calma 3 Este 0 -- -- 100
2021-01-16 06:00:00 -2.3 0 Calma 4 Este 0 -- -- 100
2021-01-16 05:00:00 -2 0 Calma -- -- 0 -- -- 100
2021-01-16 04:00:00 -1.6 0 Calma 4 Este 0 -- -- 100
2021-01-16 03:00:00 -1.4 0 Calma 2 Sudeste 0 -- -- 100
2021-01-16 02:00:00 -1 0 Calma 3 Este 0 -- -- 100
2021-01-16 01:00:00 -0.8 2 Este 4 Este 0 -- -- 100
2021-01-16 00:00:00 -0.3 0 Calma 5 Este 0 -- -- 100
2021-01-15 23:00:00 0.3 0 Calma 3 Este 0 -- -- 100
2021-01-15 22:00:00 1.2 0 Calma 4 Sudeste 0 -- -- 100
2021-01-15 21:00:00 1.7 0 Calma 4 Sur 0 -- -- 99
2021-01-15 20:00:00 2.7 0 Calma 5 Sudeste 0 -- -- 99
2021-01-15 19:00:00 3 3 Sur 4 Sur 0 -- -- 98
2021-01-15 18:00:00 3.5 0 Calma 5 Este 0 -- -- 95
2021-01-15 17:00:00 6 3 Sur 12 Oeste 0 -- -- 86
2021-01-15 16:00:00 6.3 4 Sur 10 Sur 0 -- -- 84
2021-01-15 15:00:00 5.9 4 Sudoeste 8 Sur 0 -- -- 82
2021-01-15 14:00:00 6.4 3 Sudoeste 16 Oeste 0 -- -- 86
2021-01-15 13:00:00 7 5 Sudoeste 12 Sudoeste 0 -- -- 84
2021-01-15 12:00:00 4.6 0 Calma 4 Sur 0 -- -- 99
2021-01-15 11:00:00 3 0 Calma 7 Sur 0 -- -- 100
2021-01-15 10:00:00 2 0 Calma 4 Este 0 -- -- 100
2021-01-15 09:00:00 1.4 0 Calma -- -- 0 -- -- 100
2021-01-15 08:00:00 1.2 0 Calma -- -- 0 -- -- 100
2021-01-15 07:00:00 1.1 0 Calma -- -- 0 -- -- 100
2021-01-15 06:00:00 2 0 Calma 4 Oeste 0 -- -- 100
2021-01-15 05:00:00 2.7 3 Oeste 15 Oeste 0.2 -- -- 100
2021-01-15 04:00:00 2.2 0 Calma 4 Sur 0.6 -- -- 100
2021-01-15 03:00:00 2.2 0 Calma 2 Oeste 0 -- -- 100
2021-01-15 02:00:00 2.4 0 Calma 4 Sur 0 -- -- 100
2021-01-15 01:00:00 2.6 0 Calma 5 Oeste 0.2 -- -- 100
2021-01-15 00:00:00 3.2 0 Calma 4 Sudoeste 0.6 -- -- 100
2021-01-14 23:00:00 4.1 3 Sudoeste 24 Oeste 0 -- -- 100
2021-01-14 22:00:00 3.8 2 Sudoeste 15 Sudoeste 0.4 -- -- 100
2021-01-14 21:00:00 2.3 2 Sudoeste 5 Noroeste 0.4 -- -- 100
2021-01-14 20:00:00 2.4 0 Calma 0 Calma 0.8 -- -- 100
2021-01-14 19:00:00 2.4 0 Calma 0 Calma 0.8 -- -- 100
2021-01-14 18:00:00 2.8 0 Calma 3 Sur 0.4 -- -- 100
2021-01-14 17:00:00 3 0 Calma 3 Sudeste 0.8 -- -- 100
2021-01-14 16:00:00 3.3 0 Calma 2 Sudeste 0.4 -- -- 100
2021-01-14 15:00:00 3.7 0 Calma 3 Sudeste 0.2 -- -- 98
2021-01-14 14:00:00 4.2 2 Sur 4 Sudoeste 0 -- -- 87
2021-01-14 13:00:00 4.4 0 Calma 5 Oeste 0 -- -- 87
2021-01-14 12:00:00 2.1 0 Calma 6 Sudeste 0 -- -- 93
2021-01-14 11:00:00 -0.9 0 Calma 5 Nordeste 0 -- -- 100
2021-01-14 10:00:00 -2.6 4 Este 7 Este 0 -- -- 100
2021-01-14 09:00:00 -3.9 3 Este 5 Este 0 -- -- 100
2021-01-14 08:00:00 -4.2 0 Calma 5 Este 0 -- -- 100
2021-01-14 07:00:00 -4.3 2 Este 4 Nordeste 0 -- -- 100
2021-01-14 06:00:00 -3.8 0 Calma -- -- 0 -- -- 100
2021-01-14 05:00:00 -3.9 0 Calma -- -- 0 -- -- 100
2021-01-14 04:00:00 -3.8 0 Calma -- -- 0 -- -- 100
2021-01-14 03:00:00 -3.4 0 Calma -- -- 0 -- -- 100
2021-01-14 02:00:00 -3.3 0 Calma 3 Este 0 -- -- 100
2021-01-14 01:00:00 -2.8 0 Calma 3 Sudeste 0 -- -- 100
2021-01-14 00:00:00 -2.4 0 Calma 4 Este 0 -- -- 100
2021-01-13 23:00:00 -2.1 0 Calma 3 Este 0 -- -- 100
2021-01-13 22:00:00 -1.9 0 Calma 4 Nordeste 0 -- -- 100
2021-01-13 21:00:00 -1.3 0 Calma 4 Este 0 -- -- 99
2021-01-13 20:00:00 -0.8 0 Calma 5 Sudeste 0 -- -- 98
2021-01-13 19:00:00 0.2 0 Calma 4 Este 0 -- -- 94
2021-01-13 18:00:00 1.6 0 Calma 4 Sudeste 0 -- -- 91
2021-01-13 17:00:00 3 0 Calma 5 Sur 0 -- -- 86
2021-01-13 16:00:00 4 3 Sudoeste 7 Sudoeste 0 -- -- 81
2021-01-13 15:00:00 5.9 3 Sudoeste 5 Sudoeste 0 -- -- 76
2021-01-13 14:00:00 5.7 2 Sudoeste 4 Oeste 0 -- -- 77
2021-01-13 13:00:00 5.3 0 Calma 3 Sudoeste 0 -- -- 80
2021-01-13 12:00:00 4.1 2 Sur 3 Sudoeste 0 -- -- 86
2021-01-13 11:00:00 2.3 0 Calma 3 Sur 0 -- -- 97
2021-01-13 10:00:00 1 0 Calma 3 Este 0 -- -- 100
2021-01-13 09:00:00 0.4 0 Calma 3 Este 0 -- -- 100
2021-01-13 08:00:00 0.3 0 Calma 5 Nordeste 0 -- -- 100
2021-01-13 07:00:00 0.6 0 Calma 2 Sur 0 -- -- 100
2021-01-13 06:00:00 0.8 0 Calma 4 Sudeste 0 -- -- 100
2021-01-13 05:00:00 0.9 0 Calma 4 Sur 0 -- -- 100
2021-01-13 04:00:00 0.9 0 Calma 3 Nordeste 0 -- -- 100
2021-01-13 03:00:00 0.8 2 Este 3 Sudeste 0 -- -- 100
2021-01-13 02:00:00 0.7 3 Este 4 Este 0 -- -- 100
2021-01-13 01:00:00 0.9 0 Calma -- -- 0 -- -- 100
2021-01-13 00:00:00 1 0 Calma -- -- 0 -- -- 100
2021-01-12 23:00:00 0.9 0 Calma 4 Este 0 -- -- 100
2021-01-12 22:00:00 0.6 0 Calma 3 Este 0 -- -- 99
2021-01-12 21:00:00 0.9 0 Calma 2 Este 0 -- -- 97
2021-01-12 20:00:00 1.4 0 Calma 3 Este 0 -- -- 96
2021-01-12 19:00:00 1.4 3 Sur 4 Sudeste 0 -- -- 95
2021-01-12 18:00:00 1.5 0 Calma 4 Este 0 -- -- 92
2021-01-12 17:00:00 2 0 Calma 4 Sudoeste 0 -- -- 89
2021-01-12 16:00:00 3.1 3 Sur 8 Sur 0 -- -- 86
2021-01-12 15:00:00 4 4 Sudoeste 6 Oeste 0 -- -- 80
2021-01-12 14:00:00 4.6 2 Sur 4 Sur 0 -- -- 79
2021-01-12 13:00:00 3.2 0 Calma 5 Sudoeste 0 -- -- 84
2021-01-12 12:00:00 1.7 0 Calma 5 Sudeste 0 -- -- 88
2021-01-12 11:00:00 -0.6 2 Sudoeste 3 Sudoeste 0 -- -- 99
2021-01-12 10:00:00 -2.1 0 Calma 3 Este 0 -- -- 100
2021-01-12 09:00:00 -2 0 Calma 2 Nordeste 0 -- -- 100
2021-01-12 08:00:00 -1.8 0 Calma 3 Nordeste 0 -- -- 100
2021-01-12 07:00:00 -2 0 Calma 3 Este 0 -- -- 100
2021-01-12 06:00:00 -2.2 0 Calma 5 Este 0 -- -- 100
2021-01-12 05:00:00 -2.7 0 Calma 3 Este 0 -- -- 100
2021-01-12 04:00:00 -2.7 0 Calma 4 Sudeste 0 -- -- 100
2021-01-12 03:00:00 -2.5 0 Calma -- -- 0 -- -- 100
2021-01-12 02:00:00 -2.1 0 Calma -- -- 0 -- -- 100
2021-01-12 01:00:00 -1.6 0 Calma -- -- 0 -- -- 100
2021-01-12 00:00:00 -0.9 0 Calma -- -- 0 -- -- 100
2021-01-11 23:00:00 -0.4 0 Calma 4 Este 0 -- -- 100
2021-01-11 22:00:00 0 0 Calma 3 Sur 0 -- -- 99
2021-01-11 21:00:00 0.5 0 Calma 2 Este 0 -- -- 99
2021-01-11 20:00:00 0.8 0 Calma 3 Este 0 -- -- 98
2021-01-11 19:00:00 1.2 0 Calma 2 Este 0 -- -- 96
2021-01-11 18:00:00 2 0 Calma 8 Oeste 0 -- -- 93
2021-01-11 17:00:00 2.8 3 Sudoeste 8 Oeste 0 -- -- 90
2021-01-11 16:00:00 3.5 4 Oeste 15 Oeste 0 -- -- 87
2021-01-11 15:00:00 4 7 Oeste 16 Oeste 0 -- -- 83
2021-01-11 14:00:00 4 7 Oeste 16 Oeste 0 -- -- 82
2021-01-11 13:00:00 3 2 Sudoeste 12 Noroeste 0 -- -- 90
2021-01-11 12:00:00 3.2 5 Oeste 10 Oeste 0 -- -- 88
2021-01-11 11:00:00 2.4 7 Oeste 12 Noroeste 0 -- -- 92
2021-01-11 10:00:00 1.5 3 Oeste 8 Sudoeste 0 -- -- 97
2021-01-11 09:00:00 0.9 2 Oeste 8 Oeste 0 -- -- 98
2021-01-11 08:00:00 1.1 3 Oeste 9 Sudoeste 0 -- -- 98
2021-01-11 07:00:00 1.2 0 Calma 6 Oeste 0 -- -- 96
2021-01-11 06:00:00 2.1 4 Sudoeste 18 Sudoeste 0 -- -- 91
2021-01-11 05:00:00 2 5 Sudoeste 19 Oeste 0 -- -- 91
2021-01-11 04:00:00 2.5 9 Sudoeste 23 Oeste 0 -- -- 88
2021-01-11 03:00:00 2.7 9 Oeste 23 Oeste 0.2 -- -- 87
2021-01-11 02:00:00 2.7 9 Oeste 25 Sudoeste 0 -- -- 87
2021-01-11 01:00:00 2.6 9 Sudoeste 26 Oeste 0 -- -- 89
2021-01-11 00:00:00 2 6 Sudoeste 32 Oeste 0.4 -- -- 94
2021-01-10 23:00:00 2.3 8 Sudoeste 19 Oeste 0.2 -- -- 89
2021-01-10 22:00:00 2.6 6 Sudoeste 22 Sudoeste 0 -- -- 86
2021-01-10 21:00:00 2.7 12 Oeste 27 Oeste 0 -- -- 84
2021-01-10 20:00:00 2.9 13 Oeste 21 Oeste 0 -- -- 84
2021-01-10 19:00:00 2.4 5 Sudoeste 19 Sudoeste 0 -- -- 86
2021-01-10 18:00:00 2.6 7 Oeste 33 Oeste 0 -- -- 85
2021-01-10 17:00:00 2.9 18 Oeste 35 Oeste 0 -- -- 84
2021-01-10 16:00:00 3 12 Sudoeste 32 Oeste 0 -- -- 83
2021-01-10 15:00:00 2.9 12 Oeste 33 Oeste 0 -- -- 85
2021-01-10 14:00:00 3 14 Oeste 31 Oeste 0 -- -- 83
2021-01-10 13:00:00 2.9 14 Oeste 33 Oeste 0 -- -- 84
2021-01-10 12:00:00 2.8 14 Oeste 34 Oeste 0 -- -- 87
2021-01-10 11:00:00 2.8 18 Oeste 35 Oeste 0 -- -- 89
2021-01-10 10:00:00 2.4 13 Oeste 33 Oeste 0 -- -- 93
2021-01-10 09:00:00 2.1 9 Oeste 23 Oeste 0 -- -- 93
2021-01-10 08:00:00 2.1 12 Oeste 26 Oeste 0 -- -- 94
2021-01-10 07:00:00 1.3 4 Oeste 22 Oeste 0 -- -- 99
2021-01-10 06:00:00 0.3 4 Oeste 12 Sudoeste 0.6 -- -- 100
2021-01-10 05:00:00 0.2 4 Oeste 8 Oeste 0.2 -- -- 100
2021-01-10 04:00:00 0.2 3 Oeste 5 Oeste 1.2 -- -- 100
2021-01-10 03:00:00 0.1 0 Calma 4 Oeste 0.2 -- -- 100
2021-01-10 02:00:00 0.2 2 Oeste 5 Noroeste 0 -- -- 100
2021-01-10 01:00:00 0.1 3 Sudoeste 5 Oeste 0 -- -- 100
2021-01-10 00:00:00 0 2 Sudoeste 5 Noroeste 0.2 -- -- 100
2021-01-09 23:00:00 0 3 Oeste 5 Noroeste 0.4 -- -- 100
2021-01-09 22:00:00 0 3 Noroeste 7 Oeste 1.2 -- -- 100
2021-01-09 21:00:00 0.1 3 Noroeste 6 Noroeste 1.4 -- -- 100
2021-01-09 20:00:00 0.1 2 Oeste 5 Noroeste 1.2 -- -- 100
2021-01-09 19:00:00 0.1 3 Noroeste 6 Oeste 1.4 -- -- 100
2021-01-09 18:00:00 0.3 5 Oeste 9 Oeste 1.8 -- -- 100
2021-01-09 17:00:00 0.4 4 Oeste 12 Oeste 1.2 -- -- 100
2021-01-09 16:00:00 0.8 8 Oeste 18 Oeste 0.6 -- -- 98
2021-01-09 15:00:00 0.8 5 Oeste 15 Sudoeste 0.8 -- -- 99
2021-01-09 14:00:00 0.8 8 Sudoeste 13 Oeste 0.6 -- -- 98
2021-01-09 13:00:00 1.1 6 Oeste 17 Oeste 0.2 -- -- 94
2021-01-09 12:00:00 1.6 6 Oeste 12 Oeste 0 -- -- 87
2021-01-09 11:00:00 0.5 3 Oeste 8 Oeste 0 -- -- 95
2021-01-09 10:00:00 0 4 Oeste 6 Oeste 0 -- -- 98
2021-01-09 09:00:00 -0.4 3 Oeste 5 Noroeste 0 -- -- 100
2021-01-09 08:00:00 -0.5 0 Calma 6 Oeste 0 -- -- 98
2021-01-09 07:00:00 -0.6 2 Oeste 4 Sudoeste 0 -- -- 100
2021-01-09 06:00:00 -0.6 2 Oeste 5 Oeste 0 -- -- 99
2021-01-09 05:00:00 -0.8 3 Sudeste 4 Este 0 -- -- 99
2021-01-09 04:00:00 -0.9 0 Calma 5 Este 0 -- -- 99
2021-01-09 03:00:00 -0.9 0 Calma 3 Sur 0 -- -- 99
2021-01-09 02:00:00 -1 2 Sur 5 Sur 0 -- -- 99
2021-01-09 01:00:00 -1 0 Calma 3 Sudeste 0 -- -- 98
2021-01-09 00:00:00 -1.1 0 Calma 4 Noroeste 0 -- -- 98
2021-01-08 23:00:00 -1.1 3 Sudeste 4 Sudeste 0 -- -- 98
2021-01-08 22:00:00 -1 3 Este 4 Sudeste 0 -- -- 97
2021-01-08 21:00:00 -0.7 2 Oeste 6 Oeste 0 -- -- 95
2021-01-08 20:00:00 -0.6 3 Oeste 6 Oeste 0 -- -- 94
2021-01-08 19:00:00 -0.5 2 Oeste 4 Oeste 0 -- -- 94
2021-01-08 18:00:00 0.1 3 Sudoeste 6 Nordeste 0 -- -- 87
2021-01-08 17:00:00 1.2 3 Sudoeste 10 Sudeste 0 -- -- 85
2021-01-08 16:00:00 1.2 4 Sudoeste 10 Oeste 0 -- -- 80
2021-01-08 15:00:00 2.3 8 Sudoeste 16 Sudoeste 0 -- -- 69
2021-01-08 14:00:00 1.2 3 Sudoeste 9 Oeste 0 -- -- 81
2021-01-08 13:00:00 0.6 0 Calma 4 Sudeste 0 -- -- 86
2021-01-08 12:00:00 -0.5 0 Calma 4 Sur 0 -- -- 92
2021-01-08 11:00:00 -2.4 0 Calma 4 Sur 0 -- -- 97
2021-01-08 10:00:00 -2.7 0 Calma 5 Sur 0 -- -- 98
2021-01-08 09:00:00 -3 2 Este 6 Nordeste 0 -- -- 99
2021-01-08 08:00:00 -3.1 2 Sudeste 4 Este 0 -- -- 100
2021-01-08 07:00:00 -3.7 0 Calma 5 Sur 0 -- -- 100
2021-01-08 06:00:00 -4.3 0 Calma 4 Este 0 -- -- 98
2021-01-08 05:00:00 -3.2 0 Calma 4 Sudeste 0 -- -- 96
2021-01-08 04:00:00 -2 3 Sudeste 6 Este 0 -- -- 100
2021-01-08 03:00:00 -2.2 2 Sur 4 Sudeste 0 -- -- 100
2021-01-08 02:00:00 -2.3 2 Este 4 Sur 0 -- -- 100
2021-01-08 01:00:00 -2.8 0 Calma 4 Este 0 -- -- 100
2021-01-08 00:00:00 -3.4 0 Calma 4 Sur 0 -- -- 100
2021-01-07 23:00:00 -4.1 0 Calma 4 Este 0 -- -- 99
2021-01-07 22:00:00 -3.5 0 Calma 3 Sudeste 0 -- -- 98
2021-01-07 21:00:00 -3 0 Calma 4 Sudeste 0 -- -- 98
2021-01-07 20:00:00 -2.8 2 Este 4 Este 0 -- -- 96
2021-01-07 19:00:00 -2 0 Calma 3 Sudeste 0 -- -- 94
2021-01-07 18:00:00 -1.1 2 Este 4 Este 0 -- -- 92
2021-01-07 17:00:00 0 0 Calma 6 Sudoeste 0 -- -- 88
2021-01-07 16:00:00 1.1 4 Sur 9 Oeste 0 -- -- 84
2021-01-07 15:00:00 2.6 3 Sur 5 Sur 0 -- -- 81
2021-01-07 14:00:00 1.9 3 Sur 4 Sur 0 -- -- 83
2021-01-07 13:00:00 1.1 0 Calma 3 Sur 0 -- -- 85
2021-01-07 12:00:00 -0.3 0 Calma 4 Sur 0 -- -- 89
2021-01-07 11:00:00 -3 3 Sur 4 Sur 0 -- -- 100
2021-01-07 10:00:00 -5.1 0 Calma 4 Nordeste 0 -- -- 100
2021-01-07 09:00:00 -5.4 0 Calma 4 Este 0 -- -- 100
2021-01-07 08:00:00 -5.2 0 Calma 3 Este 0 -- -- 100
2021-01-07 07:00:00 -5.1 0 Calma 3 Este 0 -- -- 100
2021-01-07 06:00:00 -4.7 2 Sudeste 3 Este 0 -- -- 100
2021-01-07 05:00:00 -4.6 0 Calma 3 Este 0 -- -- 100
2021-01-07 04:00:00 -4.3 2 Sudeste 3 Nordeste 0 -- -- 100
2021-01-07 03:00:00 -3.9 0 Calma 3 Este 0 -- -- 100
2021-01-07 02:00:00 -3.5 0 Calma 3 Este 0 -- -- 100
2021-01-07 01:00:00 -3 0 Calma 3 Este 0 -- -- 100
2021-01-07 00:00:00 -2.5 2 Sudeste 3 Sudeste 0 -- -- 100
2021-01-06 23:00:00 -2.1 0 Calma 4 Este 0 -- -- 100
2021-01-06 22:00:00 -1.7 0 Calma 3 Sur 0 -- -- 100
2021-01-06 21:00:00 -1.1 0 Calma 3 Sudeste 0 -- -- 99
2021-01-06 20:00:00 -0.1 0 Calma 5 Este 0 -- -- 100
2021-01-06 19:00:00 0 0 Calma 3 Este 0 -- -- 98
2021-01-06 18:00:00 1.2 0 Calma 4 Sudeste 0 -- -- 96
2021-01-06 17:00:00 2.2 0 Calma 6 Sudeste 0 -- -- 93
2021-01-06 16:00:00 2.3 2 Sur 7 Oeste 0 -- -- 90
2021-01-06 15:00:00 4.1 5 Sudoeste 10 Oeste 0 -- -- 78
2021-01-06 14:00:00 4.1 2 Sudoeste 4 Oeste 0 -- -- 85
2021-01-06 13:00:00 3.6 0 Calma 4 Sur 0 -- -- 94
2021-01-06 12:00:00 2.6 0 Calma 3 Sudeste 0 -- -- 100
2021-01-06 11:00:00 1.3 0 Calma 2 Sur 0 -- -- 100
2021-01-06 10:00:00 0.5 0 Calma 4 Sur 0 -- -- 100
2021-01-06 09:00:00 0.2 0 Calma -- -- 0.6 -- -- 100
2021-01-06 08:00:00 0.2 0 Calma 0 Calma 0.2 -- -- 100
2021-01-06 07:00:00 0.3 0 Calma 3 Sudeste 0.4 -- -- 100
2021-01-06 06:00:00 0.4 0 Calma 4 Sur 0 -- -- 100
2021-01-06 05:00:00 0.4 0 Calma 4 Sur 0 -- -- 100
2021-01-06 04:00:00 0.4 0 Calma 3 Sur 0 -- -- 100
2021-01-06 03:00:00 0.4 2 Este 4 Oeste 0 -- -- 100
2021-01-06 02:00:00 0.6 0 Calma -- -- 0 -- -- 100
2021-01-06 01:00:00 0.7 0 Calma 2 Oeste 0 -- -- 100
2021-01-06 00:00:00 0.8 0 Calma 4 Sudeste 0.2 -- -- 100
2021-01-05 23:00:00 0.8 0 Calma 2 Este 0.2 -- -- 100
2021-01-05 22:00:00 0.9 0 Calma 2 Sudoeste 0.2 -- -- 100
2021-01-05 21:00:00 1 0 Calma 5 Sudeste 0 -- -- 100
2021-01-05 20:00:00 1.2 0 Calma 6 Oeste 0 -- -- 100
2021-01-05 19:00:00 1.5 2 Sudoeste 11 Noroeste 0 -- -- 100
2021-01-05 18:00:00 1.8 0 Calma -- -- 0 -- -- 98
2021-01-05 17:00:00 2.4 0 Calma 7 Oeste 0 -- -- 96
2021-01-05 16:00:00 3.7 4 Oeste 6 Oeste 0 -- -- 90
2021-01-05 15:00:00 3 0 Calma 4 Oeste 0 -- -- 95
2021-01-05 14:00:00 3.6 0 Calma 3 Sur 0 -- -- 93
2021-01-05 13:00:00 3.3 0 Calma 3 Noroeste 0 -- -- 99
2021-01-05 12:00:00 1.7 0 Calma 4 Este 0 -- -- 100
2021-01-05 11:00:00 0.8 0 Calma 3 Nordeste 0.2 -- -- 100
2021-01-05 10:00:00 0.1 0 Calma 3 Noroeste 0 -- -- 100
2021-01-05 09:00:00 -0.3 0 Calma 3 Sudeste 0 -- -- 100
2021-01-05 08:00:00 -0.3 0 Calma 5 Sur 0 -- -- 100
2021-01-05 07:00:00 -0.2 0 Calma 4 Sudeste 0.2 -- -- 100
2021-01-05 06:00:00 -0.5 0 Calma 0 Calma 0 -- -- 100
2021-01-05 05:00:00 -0.3 0 Calma 0 Calma 0 -- -- 100
2021-01-05 04:00:00 -0.1 0 Calma 2 Sudoeste 0 -- -- 100
2021-01-05 03:00:00 -0.1 0 Calma 3 Este 0.2 -- -- 100
2021-01-05 02:00:00 0 0 Calma 2 Este 1.6 -- -- 100
2021-01-05 01:00:00 0 0 Calma 6 Sudoeste 2 -- -- 100
2021-01-05 00:00:00 -0.3 0 Calma 6 Sur 0 -- -- 100
2021-01-04 23:00:00 -0.2 2 Sudeste 5 Este 0 -- -- 100
2021-01-04 22:00:00 -0.1 0 Calma 5 Este 0 -- -- 100
2021-01-04 21:00:00 0.1 0 Calma 2 Sudeste 1.4 -- -- 100
2021-01-04 20:00:00 0.2 0 Calma 4 Este 0 -- -- 100
2021-01-04 19:00:00 0.2 0 Calma 4 Oeste 0.6 -- -- 100
2021-01-04 18:00:00 0.3 0 Calma 3 Este 1.8 -- -- 100
2021-01-04 17:00:00 0.6 0 Calma 7 Oeste 2.2 -- -- 100
2021-01-04 16:00:00 0.6 4 Sudoeste 13 Oeste 2.2 -- -- 100
2021-01-04 15:00:00 2 5 Oeste 16 Oeste 0 -- -- 99
2021-01-04 14:00:00 1 2 Oeste 11 Oeste 1 -- -- 100
2021-01-04 13:00:00 0.7 6 Oeste 12 Oeste 2 -- -- 100
2021-01-04 12:00:00 0.3 2 Oeste 5 Sudoeste 3.4 -- -- 100
2021-01-04 11:00:00 0.2 0 Calma 4 Sudoeste 4.2 -- -- 100
2021-01-04 10:00:00 0.1 0 Calma 4 Este 1.2 -- -- 100
2021-01-04 09:00:00 0.2 0 Calma 5 Sudoeste 0.4 -- -- 100
2021-01-04 08:00:00 0.2 4 Oeste 9 Oeste 1 -- -- 100
2021-01-04 07:00:00 0.1 2 Oeste 11 Oeste 0.6 -- -- 100
2021-01-04 06:00:00 -0.1 0 Calma 3 Noroeste 0.2 -- -- 100
2021-01-04 05:00:00 0 0 Calma 2 Sur 0 -- -- 100
2021-01-04 04:00:00 0.1 0 Calma 4 Este 1.6 -- -- 100
2021-01-04 03:00:00 0.1 0 Calma 3 Sudeste 0.8 -- -- 100
2021-01-04 02:00:00 0.1 2 Sudeste 11 Noroeste 0.6 -- -- 100
2021-01-04 01:00:00 -0.1 0 Calma 3 Nordeste 0.6 -- -- 100
2021-01-04 00:00:00 0.1 0 Calma 5 Sur 1 -- -- 100
2021-01-03 23:00:00 0.1 0 Calma 4 Oeste 2.6 -- -- 100
2021-01-03 22:00:00 0.3 0 Calma 7 Oeste 0.8 -- -- 100
2021-01-03 21:00:00 0.5 3 Noroeste 10 Oeste 1.2 -- -- 100
2021-01-03 20:00:00 0.6 2 Sudeste 5 Este 0 -- -- 100
2021-01-03 19:00:00 1 0 Calma 4 Sudeste 0.8 -- -- 100
2021-01-03 18:00:00 1.4 0 Calma 6 Noroeste 0 -- -- 100
2021-01-03 17:00:00 1.7 0 Calma 19 Oeste 0.4 -- -- 99
2021-01-03 16:00:00 2.3 6 Oeste 19 Noroeste 1.2 -- -- 96
2021-01-03 15:00:00 3.2 4 Oeste 14 Noroeste 0.4 -- -- 95
2021-01-03 14:00:00 3.9 3 Oeste 12 Oeste 0.4 -- -- 92
2021-01-03 13:00:00 3.2 5 Oeste 14 Noroeste 0.4 -- -- 96
2021-01-03 12:00:00 3.4 0 Calma 3 Sur 0 -- -- 100
2021-01-03 11:00:00 1.1 2 Nordeste 5 Sudeste 0.2 -- -- 100
2021-01-03 10:00:00 0.3 2 Sudeste 5 Este 1 -- -- 100
2021-01-03 09:00:00 0.1 0 Calma 4 Sudeste 0.2 -- -- 100
2021-01-03 08:00:00 0.1 0 Calma 2 Sur 0 -- -- 100
2021-01-03 07:00:00 0.1 0 Calma 3 Norte 0 -- -- 100
2021-01-03 06:00:00 0.1 0 Calma 3 Sudeste 0.8 -- -- 100
2021-01-03 05:00:00 0.1 0 Calma 3 Sudeste 0.6 -- -- 100
2021-01-03 04:00:00 0.1 2 Este 3 Nordeste 4.6 -- -- 100
2021-01-03 03:00:00 0.2 0 Calma 4 Noroeste 3.2 -- -- 100
2021-01-03 02:00:00 0.2 0 Calma 3 Este 0.2 -- -- 100
2021-01-03 01:00:00 0.2 0 Calma 3 Noroeste 0.2 -- -- 100
2021-01-03 00:00:00 0.2 0 Calma 4 Oeste 1 -- -- 100
2021-01-02 23:00:00 0.2 0 Calma 3 Sudeste 0.6 -- -- 100
2021-01-02 22:00:00 0.2 0 Calma 3 Sudeste 0.4 -- -- 100
2021-01-02 21:00:00 0.2 0 Calma 3 Oeste 1.4 -- -- 100
2021-01-02 20:00:00 0.3 0 Calma 4 Oeste 2.2 -- -- 100
2021-01-02 19:00:00 0.8 2 Oeste 15 Oeste 1.2 -- -- 100
2021-01-02 18:00:00 1.5 4 Noroeste 9 Noroeste 0 -- -- 99
2021-01-02 17:00:00 2.2 3 Sudoeste 17 Oeste 0.2 -- -- 94
2021-01-02 16:00:00 3.2 6 Oeste 36 Oeste 0 -- -- 90
2021-01-02 15:00:00 3.7 6 Oeste 21 Sudoeste 0 -- -- 85
2021-01-02 14:00:00 3.1 7 Oeste 16 Oeste 0 -- -- 88